Aviation Digital Data Service (ADDS)

Output produced by METARs form (2211 UTC 06 July 2015)
found at http://www.aviationweather.gov/adds/metars/
 
KBFD 062153Z AUTO 16009G15KT 10SM FEW021 SCT028 23/18 A3008 RMK AO2 SLP176 T02330183
KBFD 062053Z AUTO 16005KT 10SM FEW023 23/18 A3010 RMK AO2 SLP181 60008 T02330183 58012
KBFD 061953Z AUTO 14007KT 10SM SCT022 SCT030 BKN036 23/19 A3011 RMK AO2 RAE11 SLP187 P0002 T02280194
KBFD 061902Z AUTO 10005KT 3SM +RA BR FEW020 BKN047 OVC055 21/19 A3012 RMK AO2 P0002 T02110194
KBFD 061853Z AUTO 13007G15KT 9SM -RA SCT020 BKN029 OVC100 22/19 A3013 RMK AO2 SLP190 P0006 T02170194
KBFD 061833Z AUTO 11004KT 8SM -RA FEW019 BKN035 OVC110 22/20 A3012 RMK AO2 P0006 T02220200
KBFD 061825Z AUTO 13004KT 2SM -RA BR SCT022 BKN036 OVC085 22/20 A3012 RMK AO2 P0006 T02170200
KBFD 061821Z AUTO 16004KT 1 1/2SM RA BR SCT021 BKN029 OVC085 22/20 A3013 RMK AO2 P0006 T02170200
KBFD 061813Z AUTO 19005KT 2 1/2SM RA SCT021 BKN030 OVC080 23/19 A3013 RMK AO2 VIS 1 1/4V5 P0002 T02280194
KBFD 061753Z AUTO 00000KT 8SM -RA FEW019 BKN090 OVC110 23/19 A3013 RMK AO2 RAB41 SLP192 P0000 60000 T02330189 10244 20178 58009
KBFD 061653Z AUTO 15006KT 10SM SCT020 BKN060 BKN110 24/18 A3015 RMK AO2 SLP198 T02390178
KBFD 061650Z AUTO VRB05KT 10SM SCT021 SCT030 BKN060 24/18 A3015 RMK AO2
KBFD 061553Z AUTO VRB04KT 10SM BKN020 OVC025 22/18 A3016 RMK AO2 SLP202 T02220178
KBFD 061453Z AUTO 19004KT 10SM OVC017 22/17 A3017 RMK AO2 SLP203 T02170172 55002
KBFD 061406Z AUTO 14006KT 8SM BKN017 OVC040 22/18 A3016 RMK AO2 T02170178
KBFD 061353Z AUTO VRB05KT 8SM SCT015 BKN040 22/17 A3016 RMK AO2 SLP199 T02170172
KBFD 061332Z AUTO VRB06KT 7SM SCT009 BKN036 OVC044 21/17 A3015 RMK AO2 T02060172
KBFD 061253Z AUTO 14003KT 5SM BR OVC007 19/17 A3018 RMK AO2 SLP206 T01940172
KBFD 061153Z AUTO 14004KT 6SM BR OVC009 18/16 A3017 RMK AO2 SLP203 T01780161 10178 20128 53006
KBFD 061140Z AUTO 14004KT 5SM BR BKN009 17/16 A3017 RMK AO2 CIG 008V011 T01720156
KBFD 061053Z AUTO 13003KT 5SM BR CLR 14/13 A3016 RMK AO2 SLP201 T01440133
KBFD 060953Z AUTO 13004KT 4SM BR FEW015 13/12 A3016 RMK AO2 SLP200 T01330122
KBFD 060853Z AUTO 00000KT 8SM CLR 13/12 A3015 RMK AO2 SLP198 T01330122 56004
KBFD 060753Z AUTO 00000KT 8SM CLR 14/13 A3016 RMK AO2 SLP199 T01390128
KBFD 060653Z AUTO 00000KT 7SM CLR 14/13 A3016 RMK AO2 SLP199 T01440128
KBFD 060553Z AUTO 00000KT 6SM BR CLR 14/13 A3017 RMK AO2 SLP203 T01390128 10217 20139 58006
KBFD 060453Z AUTO 14003KT 6SM BR CLR 14/13 A3018 RMK AO2 SLP207 T01390133 402560078
KBFD 060353Z AUTO 00000KT 8SM CLR 15/14 A3020 RMK AO2 SLP214 T01500139
KBFD 060253Z AUTO 00000KT 6SM BR CLR 16/14 A3019 RMK AO2 SLP210 T01560144 53005
KBFD 060153Z AUTO 14003KT 10SM CLR 17/14 A3018 RMK AO2 SLP210 T01670144
KBFD 060053Z AUTO 00000KT 10SM CLR 19/15 A3017 RMK AO2 SLP205 T01890150
KBFD 052353Z AUTO 16003KT 10SM CLR 22/14 A3017 RMK AO2 SLP207 T02170144 10256 20217 55001
KBFD 052253Z AUTO 12005KT 10SM CLR 24/12 A3016 RMK AO2 SLP207 T02390117
KBFD 052153Z AUTO 12006KT 10SM CLR 24/11 A3017 RMK AO2 SLP207 T02440106
KBFD 052053Z AUTO 01004KT 10SM FEW060 25/11 A3017 RMK AO2 SLP208 T02500106 56006
KBFD 051953Z AUTO VRB03KT 10SM CLR 24/09 A3018 RMK AO2 SLP211 T02440094
KBFD 051853Z AUTO 14004KT 10SM CLR 24/11 A3018 RMK AO2 SLP214 T02440111
KBFD 051753Z AUTO 12006KT 10SM FEW050 24/12 A3019 RMK AO2 SLP215 T02390117 10244 20128 58003
KBFD 051653Z AUTO 00000KT 10SM FEW041 24/12 A3020 RMK AO2 SLP219 T02390117
KBFD 051553Z AUTO VRB03KT 10SM CLR 23/12 A3021 RMK AO2 SLP222 T02280117
KBFD 051453Z AUTO 00000KT 10SM CLR 22/12 A3020 RMK AO2 SLP220 T02170122 51006
KBFD 051353Z AUTO 00000KT 10SM CLR 20/12 A3019 RMK AO2 SLP216 T02000122
KBFD 051253Z AUTO 00000KT 10SM CLR 17/13 A3020 RMK AO2 SLP220 T01670133
KBFD 051153Z AUTO 00000KT 10SM CLR 13/11 A3019 RMK AO2 SLP215 T01280111 10133 20078 53017
KBFD 051053Z AUTO 11003KT 10SM CLR 08/07 A3017 RMK AO2 SLP210 T00830072